Time;durP1;ratioP1;P1;durP2;ratioP2;P2;SDS_P1;SDS_P2;PMS_P1;PMS_P2;Temp;Humidity;BMP_temperature;BMP_pressure;BME280_temperature;BME280_humidity;BME280_pressure;Samples;Min_cycle;Max_cycle;Signal;HPM_P1;HPM_P2
2023/07/07 00:01:09;;;;;;;1.88;1.48;;;;;;;12.60;100.00;101879.88;5020505;28;20540;-51
2023/07/07 00:03:35;;;;;;;2.03;1.52;;;;;;;12.42;100.00;101886.69;5020041;28;20266;-52
2023/07/07 00:06:01;;;;;;;3.63;1.90;;;;;;;12.40;100.00;101883.16;5020728;28;20566;-51
2023/07/07 00:08:27;;;;;;;2.40;1.48;;;;;;;12.41;100.00;101890.28;5014394;28;20200;-50
2023/07/07 00:10:53;;;;;;;1.55;1.45;;;;;;;12.37;100.00;101883.22;5020083;28;20191;-50
2023/07/07 00:13:20;;;;;;;2.13;1.65;;;;;;;12.26;100.00;101888.03;5023807;28;20589;-51
2023/07/07 00:15:46;;;;;;;3.45;1.83;;;;;;;12.26;100.00;101885.34;5012480;28;20300;-53
2023/07/07 00:18:17;;;;;;;9.02;2.63;;;;;;;12.19;100.00;101887.31;5020161;28;20196;-51
2023/07/07 00:20:43;;;;;;;2.10;1.63;;;;;;;12.03;100.00;101889.56;5024075;28;20267;-51
2023/07/07 00:23:08;;;;;;;2.78;1.80;;;;;;;11.89;100.00;101895.28;5018386;28;20259;-51
2023/07/07 00:25:34;;;;;;;2.13;1.88;;;;;;;11.86;100.00;101898.03;5014380;28;20255;-51
2023/07/07 00:28:00;;;;;;;2.03;1.73;;;;;;;11.75;100.00;101900.09;5018153;28;20171;-51
2023/07/07 00:30:26;;;;;;;2.15;1.83;;;;;;;11.88;100.00;101898.91;5020214;28;20535;-52
2023/07/07 00:32:51;;;;;;;2.38;1.85;;;;;;;11.87;100.00;101905.16;5013977;28;20175;-53
2023/07/07 00:35:17;;;;;;;2.10;1.80;;;;;;;11.77;100.00;101906.31;5016482;28;20662;-51
2023/07/07 00:37:43;;;;;;;2.30;1.60;;;;;;;11.91;100.00;101908.66;5023484;28;20263;-51
2023/07/07 00:40:09;;;;;;;2.35;1.65;;;;;;;11.98;100.00;101909.38;5019980;28;20613;-53
2023/07/07 00:42:35;;;;;;;2.00;1.80;;;;;;;11.97;100.00;101897.78;5016573;28;20199;-51
2023/07/07 00:45:20;;;;;;;2.20;2.00;;;;;;;11.99;100.00;101911.16;5023365;28;20196;-51
2023/07/07 00:47:58;;;;;;;2.45;1.77;;;;;;;12.07;100.00;101912.72;5022897;28;20299;-52
2023/07/07 00:50:29;;;;;;;2.58;1.80;;;;;;;12.06;100.00;101907.38;5022890;28;20175;-53
2023/07/07 00:52:57;;;;;;;2.67;1.90;;;;;;;12.03;100.00;101904.78;5034698;28;20680;-51
2023/07/07 00:55:49;;;;;;;2.35;1.70;;;;;;;12.09;100.00;101901.91;5023443;28;20196;-51
2023/07/07 00:58:19;;;;;;;2.53;1.95;;;;;;;12.10;100.00;101899.19;5024275;28;20180;-51
2023/07/07 01:00:50;;;;;;;1.65;1.55;;;;;;;12.08;100.00;101897.47;5024320;28;20267;-51
2023/07/07 01:03:32;;;;;;;2.92;1.40;;;;;;;12.11;100.00;101906.34;5026221;28;20195;-51
2023/07/07 01:06:01;;;;;;;2.53;1.50;;;;;;;11.83;100.00;101898.13;5026325;28;20224;-52
2023/07/07 01:08:28;;;;;;;2.83;1.70;;;;;;;11.82;100.00;101896.34;5025208;28;20180;-51
2023/07/07 01:10:53;;;;;;;1.77;1.58;;;;;;;11.64;100.00;101888.78;5020659;28;20507;-53
2023/07/07 01:13:19;;;;;;;3.35;1.65;;;;;;;11.78;100.00;101897.34;5019510;28;20171;-52
2023/07/07 01:16:01;;;;;;;2.95;1.50;;;;;;;11.68;100.00;101893.16;5027707;28;20235;-51
2023/07/07 01:18:56;;;;;;;1.67;1.33;;;;;;;11.74;100.00;101888.50;5022048;28;20176;-52
2023/07/07 01:21:53;;;;;;;1.90;1.52;;;;;;;11.74;100.00;101893.88;5014779;28;20204;-52
2023/07/07 01:24:56;;;;;;;3.28;1.60;;;;;;;11.58;100.00;101896.97;5021473;28;20236;-50
2023/07/07 01:28:20;;;;;;;2.88;1.58;;;;;;;11.65;100.00;101891.38;5027914;28;20202;-52
2023/07/07 01:30:52;;;;;;;1.83;1.70;;;;;;;11.68;100.00;101898.50;5004249;28;20188;-53
2023/07/07 01:33:22;;;;;;;2.17;1.70;;;;;;;11.51;100.00;101891.75;5020031;28;20188;-51
2023/07/07 01:35:48;;;;;;;3.25;1.38;;;;;;;11.30;100.00;101894.97;5019605;28;20172;-51
2023/07/07 01:38:45;;;;;;;2.88;1.58;;;;;;;11.30;100.00;101900.31;5015222;28;20559;-52
2023/07/07 01:41:15;;;;;;;1.50;1.40;;;;;;;11.39;100.00;101892.09;5020805;28;20708;-51
2023/07/07 01:44:06;;;;;;;2.30;1.60;;;;;;;11.39;100.00;101901.91;5023372;28;20717;-51
2023/07/07 01:47:11;;;;;;;1.67;1.58;;;;;;;11.48;100.00;101899.03;5016919;28;20199;-52
2023/07/07 01:49:49;;;;;;;2.50;1.73;;;;;;;11.29;100.00;101902.13;5004841;28;20192;-51
2023/07/07 01:52:36;;;;;;;4.28;1.60;;;;;;;11.10;100.00;101899.00;5026636;28;20271;-53
2023/07/07 01:55:12;;;;;;;2.05;1.50;;;;;;;11.09;100.00;101899.06;5022148;28;20192;-51
2023/07/07 01:57:41;;;;;;;2.60;1.60;;;;;;;11.10;100.00;101903.47;5021964;28;20234;-52
2023/07/07 02:00:08;;;;;;;2.80;1.50;;;;;;;11.04;100.00;101900.94;5025038;28;20359;-52
2023/07/07 02:02:42;;;;;;;2.53;1.83;;;;;;;10.92;100.00;101902.13;5018630;28;20529;-53
2023/07/07 02:05:09;;;;;;;1.65;1.55;;;;;;;10.95;100.00;101901.16;5019045;28;20270;-53
2023/07/07 02:07:35;;;;;;;2.55;1.70;;;;;;;10.87;100.00;101899.53;5020438;28;20665;-52
2023/07/07 02:10:01;;;;;;;3.00;1.60;;;;;;;10.90;100.00;101903.94;5021821;28;20184;-51
2023/07/07 02:12:26;;;;;;;2.65;1.60;;;;;;;10.82;100.00;101900.53;5020483;28;20178;-52
2023/07/07 02:14:52;;;;;;;2.92;1.65;;;;;;;10.75;100.00;101909.66;5024941;28;20280;-53
2023/07/07 02:17:18;;;;;;;1.80;1.30;;;;;;;10.80;100.00;101902.38;5028206;28;20176;-52
2023/07/07 02:19:44;;;;;;;2.30;1.77;;;;;;;10.84;100.00;101909.44;5026457;28;20180;-52
2023/07/07 02:22:10;;;;;;;1.48;1.38;;;;;;;10.80;100.00;101903.28;5020843;28;20196;-51
2023/07/07 02:24:35;;;;;;;6.07;1.70;;;;;;;10.77;100.00;101903.31;5023127;28;20261;-52
2023/07/07 02:27:01;;;;;;;3.35;1.70;;;;;;;10.81;100.00;101905.03;5022184;28;20180;-53
2023/07/07 02:29:27;;;;;;;2.95;1.60;;;;;;;10.77;100.00;101908.69;5024891;28;20241;-53
2023/07/07 02:31:53;;;;;;;2.63;1.60;;;;;;;10.68;100.00;101912.44;5020699;28;20201;-51
2023/07/07 02:34:18;;;;;;;1.83;1.20;;;;;;;10.81;100.00;101907.72;5027616;28;20204;-51
2023/07/07 02:36:44;;;;;;;2.85;1.92;;;;;;;10.78;100.00;101910.47;5022872;28;20165;-54
2023/07/07 02:39:09;;;;;;;2.95;1.77;;;;;;;10.83;100.00;101905.88;5020728;28;20211;-52
2023/07/07 02:41:35;;;;;;;2.63;1.70;;;;;;;10.75;100.00;101907.84;5021788;28;21042;-53
2023/07/07 02:44:02;;;;;;;1.60;1.50;;;;;;;10.70;100.00;101907.06;5021250;28;20188;-53
2023/07/07 02:46:28;;;;;;;2.90;1.52;;;;;;;10.72;100.00;101906.13;5017595;28;20206;-52
2023/07/07 02:48:53;;;;;;;2.22;1.63;;;;;;;10.67;100.00;101908.03;5022400;28;20594;-51
2023/07/07 02:51:19;;;;;;;2.22;1.60;;;;;;;10.71;100.00;101911.50;5016880;28;20180;-52
2023/07/07 02:53:44;;;;;;;1.65;1.40;;;;;;;10.76;100.00;101906.03;5025491;28;20223;-53
2023/07/07 02:56:10;;;;;;;3.35;1.70;;;;;;;10.76;100.00;101906.03;5026563;28;20169;-53
2023/07/07 02:58:36;;;;;;;1.60;1.50;;;;;;;10.58;100.00;101913.53;5027164;28;20627;-51
2023/07/07 03:01:21;;;;;;;2.20;1.52;;;;;;;10.61;100.00;101902.78;5019067;28;20180;-54
2023/07/07 03:03:51;;;;;;;1.92;1.50;;;;;;;10.65;100.00;101915.22;5019203;28;20211;-51
2023/07/07 03:06:21;;;;;;;4.13;1.60;;;;;;;10.67;100.00;101912.47;5037274;28;20227;-52
2023/07/07 03:08:50;;;;;;;3.72;1.67;;;;;;;10.55;100.00;101915.44;5021368;28;20184;-53
2023/07/07 03:11:19;;;;;;;1.52;1.42;;;;;;;10.55;100.00;101916.31;5028001;28;20198;-53
2023/07/07 03:13:49;;;;;;;2.80;1.60;;;;;;;10.51;100.00;101923.50;5040241;28;20342;-52
2023/07/07 03:16:21;;;;;;;1.63;1.50;;;;;;;10.49;100.00;101928.06;5025984;28;20262;-51
2023/07/07 03:18:55;;;;;;;2.35;1.55;;;;;;;10.52;100.00;101927.09;5019395;28;20191;-52
2023/07/07 03:21:23;;;;;;;2.72;1.77;;;;;;;10.55;100.00;101927.03;5025017;28;20172;-52
2023/07/07 03:23:55;;;;;;;1.63;1.52;;;;;;;10.56;100.00;101936.84;5022961;28;20562;-53
2023/07/07 03:26:25;;;;;;;2.55;1.70;;;;;;;10.54;100.00;101938.66;5025867;28;20184;-53
2023/07/07 03:28:53;;;;;;;2.35;1.60;;;;;;;10.36;100.00;101934.53;5026511;28;20211;-53
2023/07/07 03:31:23;;;;;;;2.35;1.85;;;;;;;10.38;100.00;101932.72;5023350;28;20180;-53
2023/07/07 03:33:55;;;;;;;2.67;1.83;;;;;;;10.41;100.00;101927.31;5026211;28;20284;-52
2023/07/07 03:36:24;;;;;;;3.72;1.92;;;;;;;10.41;100.00;101930.00;5021404;28;20522;-52
2023/07/07 03:38:50;;;;;;;3.75;2.30;;;;;;;10.37;100.00;101928.28;5023521;28;20227;-53
2023/07/07 03:41:18;;;;;;;3.35;2.00;;;;;;;10.36;100.00;101930.97;5024192;28;20196;-52
2023/07/07 03:43:47;;;;;;;2.10;1.90;;;;;;;10.32;100.00;101932.84;5024411;28;20200;-52
2023/07/07 03:46:18;;;;;;;2.75;1.80;;;;;;;10.29;100.00;101941.81;5017761;28;20185;-52
2023/07/07 03:48:47;;;;;;;5.25;2.03;;;;;;;10.30;100.00;101946.28;5025122;28;20187;-51
2023/07/07 03:51:13;;;;;;;3.28;1.92;;;;;;;10.30;100.00;101946.28;5019403;28;20535;-52
2023/07/07 03:53:41;;;;;;;7.20;2.05;;;;;;;10.29;100.00;101941.81;5010098;28;20184;-53
2023/07/07 03:56:06;;;;;;;3.13;2.03;;;;;;;10.36;100.00;101939.91;5020134;28;20246;-52
2023/07/07 03:58:32;;;;;;;4.45;1.65;;;;;;;10.42;100.00;101950.50;5024111;28;20188;-53
2023/07/07 04:01:02;;;;;;;1.40;1.30;;;;;;;10.50;100.00;101945.88;5026582;28;21111;-52
2023/07/07 04:03:28;;;;;;;2.88;2.25;;;;;;;10.52;100.00;101944.06;5017085;28;20188;-53
2023/07/07 04:05:55;;;;;;;2.30;2.15;;;;;;;10.62;100.00;101942.06;5020159;28;20254;-52
2023/07/07 04:08:25;;;;;;;4.45;2.35;;;;;;;10.46;100.00;101952.22;5015350;28;20177;-54
2023/07/07 04:11:01;;;;;;;3.53;1.92;;;;;;;10.58;100.00;101948.38;5015876;28;20187;-53
2023/07/07 04:13:28;;;;;;;4.20;2.78;;;;;;;10.77;100.00;101950.69;5017246;28;20184;-52
2023/07/07 04:16:04;;;;;;;4.13;2.78;;;;;;;10.91;100.00;101953.94;5020643;28;20202;-53
2023/07/07 04:18:31;;;;;;;4.30;3.65;;;;;;;11.17;100.00;101945.34;5032477;28;20295;-51
2023/07/07 04:20:59;;;;;;;4.88;3.47;;;;;;;11.57;100.00;101943.50;5025408;28;20654;-52
2023/07/07 04:23:24;;;;;;;4.30;3.90;;;;;;;11.82;100.00;101950.03;5022466;28;20214;-54
2023/07/07 04:25:50;;;;;;;8.10;4.38;;;;;;;12.07;100.00;101953.03;5018648;28;20212;-54
2023/07/07 04:28:17;;;;;;;7.88;3.90;;;;;;;12.29;100.00;101956.00;5021466;28;20184;-53
2023/07/07 04:30:42;;;;;;;5.55;4.05;;;;;;;12.41;100.00;101949.41;5020230;28;20188;-52
2023/07/07 04:33:08;;;;;;;4.80;3.97;;;;;;;12.49;100.00;101954.56;5014411;28;20176;-52
2023/07/07 04:35:37;;;;;;;6.28;3.90;;;;;;;12.65;100.00;101946.94;5019436;28;20207;-53
2023/07/07 04:38:02;;;;;;;5.53;4.00;;;;;;;12.78;100.00;101954.59;5020243;28;20172;-52
2023/07/07 04:40:31;;;;;;;5.88;3.92;;;;;;;12.87;100.00;101939.13;5021385;28;20509;-50
2023/07/07 04:42:57;;;;;;;6.35;3.83;;;;;;;12.88;100.00;101954.31;5022288;28;20526;-51
2023/07/07 04:45:23;;;;;;;4.15;3.72;;;;;;;12.92;100.00;101940.75;5022002;28;20211;-50
2023/07/07 04:47:48;;;;;;;4.05;3.33;;;;;;;12.96;100.00;101952.28;5025686;28;20192;-49
2023/07/07 04:50:14;;;;;;;5.25;3.88;;;;;;;13.06;100.00;101960.97;5014374;28;20196;-51
2023/07/07 04:52:39;;;;;;;6.47;3.88;;;;;;;13.20;100.00;101958.72;5022841;28;20214;-50
2023/07/07 04:55:05;;;;;;;6.07;3.75;;;;;;;13.30;100.00;101956.69;5017405;28;20662;-49
2023/07/07 04:57:31;;;;;;;3.85;3.55;;;;;;;13.44;100.00;101957.09;5016226;28;20184;-47
2023/07/07 04:59:56;;;;;;;5.32;3.70;;;;;;;13.60;100.00;101946.75;5016622;28;20172;-49
2023/07/07 05:02:26;;;;;;;5.18;3.45;;;;;;;13.77;100.00;101954.22;5014733;28;20614;-48
2023/07/07 05:04:51;;;;;;;5.47;3.28;;;;;;;13.88;100.00;101946.66;5020921;28;20788;-48
2023/07/07 05:07:17;;;;;;;4.00;3.40;;;;;;;14.07;100.00;101948.75;5013910;28;20271;-50
2023/07/07 05:09:42;;;;;;;4.35;3.28;;;;;;;14.14;100.00;101934.97;5024666;28;20180;-49
2023/07/07 05:12:09;;;;;;;6.43;3.22;;;;;;;14.26;100.00;101938.19;5024333;28;20183;-47
2023/07/07 05:14:35;;;;;;;5.18;3.38;;;;;;;14.45;100.00;101941.09;5020350;28;20577;-49
2023/07/07 05:17:01;;;;;;;4.13;3.30;;;;;;;14.64;100.00;101939.50;5016638;28;20191;-48
2023/07/07 05:19:26;;;;;;;5.68;3.45;;;;;;;14.64;100.00;101939.50;5021184;28;20216;-48
2023/07/07 05:21:52;;;;;;;6.15;3.15;;;;;;;14.77;100.00;101932.72;5020317;28;20180;-48
2023/07/07 05:24:17;;;;;;;5.95;3.40;;;;;;;14.87;100.00;101929.66;5019813;28;20696;-49
2023/07/07 05:26:43;;;;;;;3.55;2.75;;;;;;;15.04;100.00;101935.28;5018147;28;20177;-49
2023/07/07 05:29:08;;;;;;;5.60;3.33;;;;;;;15.16;100.00;101936.63;5021848;28;20290;-49
2023/07/07 05:31:34;;;;;;;8.48;3.40;;;;;;;15.27;100.00;101933.50;5013294;28;20176;-48
2023/07/07 05:34:00;;;;;;;3.38;3.08;;;;;;;15.40;99.98;101930.22;5020252;28;20200;-47
2023/07/07 05:36:26;;;;;;;4.20;2.97;;;;;;;15.48;98.84;101926.31;5030678;28;20187;-48
2023/07/07 05:38:51;;;;;;;4.53;3.20;;;;;;;15.60;98.00;101925.84;5025891;28;20248;-46
2023/07/07 05:41:17;;;;;;;4.60;2.90;;;;;;;15.69;97.28;101929.97;5023729;28;20595;-47
2023/07/07 05:43:42;;;;;;;3.30;2.72;;;;;;;15.71;96.63;101922.69;5022284;28;20254;-50
2023/07/07 05:46:14;;;;;;;6.70;3.40;;;;;;;15.84;96.11;101927.53;5037050;28;20200;-47
2023/07/07 05:48:41;;;;;;;4.97;3.10;;;;;;;15.98;95.47;101923.34;5022903;28;20196;-45
2023/07/07 05:51:10;;;;;;;7.47;3.30;;;;;;;16.24;94.37;101927.59;5025781;28;20179;-42
2023/07/07 05:53:36;;;;;;;5.78;3.00;;;;;;;16.26;92.78;101920.31;5023415;28;20654;-43
2023/07/07 05:56:08;;;;;;;3.53;2.85;;;;;;;16.34;92.02;101937.06;5026066;28;20180;-43
2023/07/07 05:58:34;;;;;;;3.92;2.63;;;;;;;16.48;90.85;101921.09;5026071;28;20172;-39
2023/07/07 06:00:59;;;;;;;3.65;2.63;;;;;;;16.61;90.07;101923.25;5029320;28;20199;-40
2023/07/07 06:03:25;;;;;;;3.67;2.67;;;;;;;16.78;89.30;101930.59;5018824;28;20670;-40
2023/07/07 06:05:50;;;;;;;3.08;2.33;;;;;;;16.84;87.98;101925.78;5018594;28;20208;-40
2023/07/07 06:08:16;;;;;;;5.88;2.72;;;;;;;16.91;87.37;101928.22;5028881;28;20752;-41
2023/07/07 06:10:41;;;;;;;2.55;2.13;;;;;;;16.98;86.55;101929.69;5020566;28;20263;-40
2023/07/07 06:13:07;;;;;;;5.40;2.50;;;;;;;17.17;84.63;101911.59;5021122;28;20264;-42
2023/07/07 06:15:32;;;;;;;4.40;2.47;;;;;;;17.29;83.77;101926.34;5021516;28;20686;-42
2023/07/07 06:17:58;;;;;;;4.72;2.80;;;;;;;17.32;83.06;101926.22;5028568;28;20204;-43
2023/07/07 06:20:23;;;;;;;3.47;2.65;;;;;;;17.34;82.28;101928.84;5021589;28;20191;-43
2023/07/07 06:22:49;;;;;;;3.75;2.33;;;;;;;17.45;81.50;101926.50;5020913;28;20238;-42
2023/07/07 06:25:14;;;;;;;4.70;2.30;;;;;;;17.65;80.79;101920.09;5025435;28;20690;-42
2023/07/07 06:27:40;;;;;;;4.63;2.40;;;;;;;17.68;79.80;101907.22;5023818;28;20199;-42
2023/07/07 06:30:06;;;;;;;5.07;2.50;;;;;;;17.88;78.66;101913.50;5020957;28;20210;-44
2023/07/07 06:32:32;;;;;;;3.15;2.38;;;;;;;17.91;78.31;101911.53;5021333;28;20206;-43
2023/07/07 06:34:57;;;;;;;3.50;2.22;;;;;;;18.20;78.48;101913.66;5022999;28;20204;-41
2023/07/07 06:37:23;;;;;;;3.30;2.25;;;;;;;18.47;77.81;101917.59;5023416;28;20172;-42
2023/07/07 06:39:48;;;;;;;5.80;2.90;;;;;;;18.52;76.68;101898.38;5013833;28;20291;-44
2023/07/07 06:42:15;;;;;;;4.22;2.28;;;;;;;18.84;75.72;101912.03;5018491;28;20184;-42
2023/07/07 06:44:47;;;;;;;3.40;2.13;;;;;;;19.12;74.75;101903.19;5003114;28;20207;-44
2023/07/07 06:47:14;;;;;;;6.40;2.35;;;;;;;19.25;74.00;101896.09;5020370;28;20183;-43
2023/07/07 06:49:40;;;;;;;3.17;2.47;;;;;;;19.45;72.94;101896.78;5025500;28;20195;-43
2023/07/07 06:52:06;;;;;;;2.33;1.95;;;;;;;19.64;71.71;101896.59;5022022;28;20176;-40
2023/07/07 06:54:31;;;;;;;4.72;2.22;;;;;;;19.87;71.53;101896.09;5023235;28;20184;-42
2023/07/07 06:56:57;;;;;;;10.75;2.03;;;;;;;19.92;70.17;101893.97;5024141;28;20234;-42
2023/07/07 06:59:22;;;;;;;3.38;2.17;;;;;;;19.74;69.34;101892.34;5015009;28;20267;-43
2023/07/07 07:01:48;;;;;;;5.72;1.55;;;;;;;20.14;68.82;101895.41;5016352;28;20202;-42
2023/07/07 07:04:13;;;;;;;3.60;2.10;;;;;;;20.13;68.51;101893.63;5021632;28;20199;-42
2023/07/07 07:06:41;;;;;;;3.38;1.80;;;;;;;20.38;68.37;101899.31;5021185;28;20264;-43
2023/07/07 07:09:07;;;;;;;4.75;1.92;;;;;;;20.75;68.00;101897.00;5021582;28;20221;-45
2023/07/07 07:11:33;;;;;;;2.53;2.00;;;;;;;20.89;67.18;101892.53;5024916;28;20180;-46
2023/07/07 07:13:58;;;;;;;2.60;1.95;;;;;;;20.63;66.07;101886.91;5024549;28;20214;-46
2023/07/07 07:16:23;;;;;;;5.00;2.25;;;;;;;20.82;65.53;101885.72;5025616;28;20176;-47
2023/07/07 07:18:49;;;;;;;3.20;2.10;;;;;;;21.07;64.99;101887.72;5025085;28;20191;-46
2023/07/07 07:21:15;;;;;;;3.53;2.13;;;;;;;21.16;64.75;101873.47;5018371;28;20627;-45
2023/07/07 07:23:41;;;;;;;3.50;1.63;;;;;;;21.48;65.30;101885.00;5018737;28;20191;-45
2023/07/07 07:26:07;;;;;;;3.75;1.90;;;;;;;21.49;63.44;101873.09;5016587;28;20207;-45
2023/07/07 07:28:32;;;;;;;2.83;2.05;;;;;;;21.67;62.59;101865.53;5018921;28;20211;-45
2023/07/07 07:30:58;;;;;;;26.88;3.67;;;;;;;21.81;62.95;101872.75;5018078;28;20280;-46
2023/07/07 07:33:23;;;;;;;3.58;2.00;;;;;;;21.86;61.62;101865.09;5022359;28;20206;-45
2023/07/07 07:35:49;;;;;;;7.53;2.47;;;;;;;21.72;61.66;101863.34;5018728;28;20184;-47
2023/07/07 07:38:17;;;;;;;3.38;2.22;;;;;;;21.96;60.86;101866.22;5027418;22;20302;-49
2023/07/07 07:40:42;;;;;;;9.55;2.50;;;;;;;21.98;60.10;101856.09;5027023;28;20263;-46
2023/07/07 07:43:08;;;;;;;4.55;2.30;;;;;;;21.96;60.48;101866.22;5025038;28;20681;-50
2023/07/07 07:45:35;;;;;;;4.60;2.20;;;;;;;21.92;60.19;101861.09;5017748;28;20288;-49
2023/07/07 07:48:01;;;;;;;5.28;2.28;;;;;;;22.55;60.05;101865.72;5023702;28;20653;-45
2023/07/07 07:50:28;;;;;;;4.47;2.35;;;;;;;22.44;58.88;101849.25;5024024;28;20187;-51
2023/07/07 07:52:54;;;;;;;6.50;2.33;;;;;;;22.14;58.54;101855.88;5036065;28;20184;-49
2023/07/07 07:55:21;;;;;;;3.85;2.45;;;;;;;22.34;57.94;101853.59;5019944;28;20239;-50
2023/07/07 07:57:47;;;;;;;4.55;2.00;;;;;;;22.56;58.36;101862.00;5023931;28;20175;-49
2023/07/07 08:00:13;;;;;;;5.70;2.17;;;;;;;22.57;57.58;101861.03;5025393;28;20183;-50
2023/07/07 08:02:40;;;;;;;5.93;2.20;;;;;;;22.72;56.51;101844.47;5020755;28;20172;-52
2023/07/07 08:05:06;;;;;;;5.40;2.33;;;;;;;22.87;56.45;101846.09;5017308;28;20564;-49
2023/07/07 08:07:32;;;;;;;5.05;2.45;;;;;;;22.67;56.82;101849.41;5021244;28;20246;-46
2023/07/07 08:09:58;;;;;;;3.75;2.40;;;;;;;23.17;57.09;101859.34;5019668;28;20175;-51
2023/07/07 08:12:23;;;;;;;7.72;2.47;;;;;;;23.16;55.76;101848.56;5025831;28;20274;-48
2023/07/07 08:14:49;;;;;;;2.78;2.10;;;;;;;23.17;56.21;101848.41;5026128;28;20191;-47
2023/07/07 08:17:15;;;;;;;4.78;2.25;;;;;;;23.68;55.50;101850.03;5026067;28;20179;-48
2023/07/07 08:19:42;;;;;;;3.75;2.05;;;;;;;23.97;55.07;101846.91;5023973;28;20183;-49
2023/07/07 08:22:12;;;;;;;5.75;2.28;;;;;;;23.31;52.73;101819.16;5036469;28;20214;-47
2023/07/07 08:24:43;;;;;;;3.28;2.15;;;;;;;23.51;51.83;101809.44;5023724;28;20229;-51
2023/07/07 08:27:10;;;;;;;5.55;2.30;;;;;;;24.15;51.74;101823.53;5026267;28;20198;-50
2023/07/07 08:29:38;;;;;;;4.90;2.20;;;;;;;23.53;51.76;101816.53;5020265;28;20184;-49
2023/07/07 08:32:04;;;;;;;5.75;1.85;;;;;;;23.09;53.02;101823.53;5019696;28;20271;-49
2023/07/07 08:34:29;;;;;;;5.22;2.25;;;;;;;23.13;52.13;101833.22;5023212;28;20201;-49
2023/07/07 08:36:59;;;;;;;4.40;2.00;;;;;;;23.23;51.52;101822.47;5023230;28;20187;-47
2023/07/07 08:39:28;;;;;;;3.80;2.10;;;;;;;23.75;50.32;101815.75;5024037;28;20217;-45
2023/07/07 08:42:03;;;;;;;3.85;2.35;;;;;;;24.52;50.53;101828.81;5024832;28;20552;-47
2023/07/07 08:44:32;;;;;;;3.38;1.90;;;;;;;23.31;51.80;101827.34;5025091;28;20637;-47
2023/07/07 08:47:00;;;;;;;2.63;1.67;;;;;;;24.04;51.07;101826.25;5018093;28;20195;-50
2023/07/07 08:49:38;;;;;;;4.28;1.70;;;;;;;24.21;48.52;101812.09;5026706;28;20207;-52
2023/07/07 08:52:22;;;;;;;3.47;2.00;;;;;;;24.11;48.18;101800.13;5018732;28;20191;-47
2023/07/07 08:54:54;;;;;;;7.00;1.88;;;;;;;23.62;48.03;101790.31;5026227;28;20641;-49
2023/07/07 08:57:27;;;;;;;4.80;2.00;;;;;;;23.93;49.03;101820.78;5027745;28;20266;-49
2023/07/07 09:00:00;;;;;;;4.00;1.92;;;;;;;24.36;48.54;101811.84;5026817;28;20207;-46
2023/07/07 09:03:07;;;;;;;3.83;2.10;;;;;;;24.50;47.30;101805.28;5020907;28;20180;-48
2023/07/07 09:05:42;;;;;;;4.20;1.90;;;;;;;24.50;47.45;101818.97;4929278;29;20225;-47
2023/07/07 09:08:25;;;;;;;7.00;1.98;;;;;;;24.88;47.33;101815.81;5013480;28;20370;-47
2023/07/07 09:11:06;;;;;;;5.30;2.33;;;;;;;24.78;46.13;101792.91;5030105;28;20191;-48
2023/07/07 09:13:35;;;;;;;5.97;2.20;;;;;;;25.21;46.18;101803.91;5035429;28;20186;-46
2023/07/07 09:16:17;;;;;;;6.60;2.05;;;;;;;25.06;45.15;101786.00;5021689;28;20267;-48
2023/07/07 09:18:49;;;;;;;5.13;2.10;;;;;;;24.94;45.16;101785.13;5023506;28;20497;-48
2023/07/07 09:21:43;;;;;;;3.53;1.90;;;;;;;25.43;46.17;101800.22;5039046;28;20182;-48
2023/07/07 09:24:26;;;;;;;3.65;2.00;;;;;;;25.22;45.49;101810.28;5024373;28;20658;-51
2023/07/07 09:26:56;;;;;;;2.55;1.95;;;;;;;25.10;44.78;101795.66;5023673;28;20183;-47
2023/07/07 09:29:27;;;;;;;5.32;2.00;;;;;;;24.98;46.25;101814.03;5025610;28;20191;-47
2023/07/07 09:31:54;;;;;;;4.85;2.15;;;;;;;24.58;46.03;101808.28;5016100;28;20172;-52
2023/07/07 09:34:22;;;;;;;4.57;2.63;;;;;;;24.34;47.17;101830.28;5026257;28;20697;-50
2023/07/07 09:37:02;;;;;;;5.03;2.33;;;;;;;24.37;46.69;101819.06;5022355;28;20563;-50
2023/07/07 09:39:52;;;;;;;3.97;2.28;;;;;;;24.84;46.00;101814.34;5044401;28;20281;-52
2023/07/07 09:42:38;;;;;;;3.60;1.80;;;;;;;25.45;44.77;101811.03;5020021;28;20180;-51
2023/07/07 09:45:41;;;;;;;4.47;1.95;;;;;;;24.81;45.01;101799.00;5022210;28;20226;-48
2023/07/07 09:48:42;;;;;;;3.13;2.30;;;;;;;25.33;42.85;101790.16;5024342;28;20188;-52
2023/07/07 09:52:05;;;;;;;2.10;1.90;;;;;;;24.87;43.15;101762.84;5024209;28;20187;-48
2023/07/07 09:54:32;;;;;;;5.82;2.10;;;;;;;24.86;43.37;101783.06;4949973;28;20256;-48
2023/07/07 09:57:25;;;;;;;2.97;1.95;;;;;;;25.22;43.17;101788.31;4950314;29;20665;-48
2023/07/07 09:59:55;;;;;;;4.40;2.25;;;;;;;24.95;42.69;101775.94;4993190;28;20199;-48
2023/07/07 10:02:23;;;;;;;4.78;2.15;;;;;;;25.26;42.75;101771.47;5030481;28;20598;-46
2023/07/07 10:04:56;;;;;;;4.47;2.10;;;;;;;25.31;41.88;101770.22;5023859;28;20678;-47
2023/07/07 10:07:24;;;;;;;4.93;2.20;;;;;;;25.33;42.23;101769.06;5030466;28;20568;-48
2023/07/07 10:09:50;;;;;;;3.70;2.10;;;;;;;25.04;42.75;101777.88;5030457;28;20175;-49
2023/07/07 10:12:17;;;;;;;5.50;2.53;;;;;;;25.60;42.85;101781.41;5029502;28;20175;-48
2023/07/07 10:14:43;;;;;;;5.07;2.17;;;;;;;25.91;41.69;101768.66;5027230;28;20191;-46
2023/07/07 10:17:09;;;;;;;3.83;2.13;;;;;;;24.83;42.57;101757.75;5029890;28;20705;-47
2023/07/07 10:19:56;;;;;;;4.07;2.20;;;;;;;25.09;42.62;101770.13;5030055;28;20183;-50
2023/07/07 10:22:22;;;;;;;2.72;2.33;;;;;;;25.62;42.03;101762.94;5029985;28;20299;-45
2023/07/07 10:24:48;;;;;;;5.22;2.22;;;;;;;25.87;42.30;101768.00;5029671;28;20200;-46
2023/07/07 10:27:17;;;;;;;5.00;2.40;;;;;;;25.28;41.71;101753.00;5029058;28;20194;-46
2023/07/07 10:29:45;;;;;;;4.97;2.20;;;;;;;24.55;43.12;101761.94;5030481;28;20314;-50
2023/07/07 10:32:14;;;;;;;3.55;2.00;;;;;;;24.10;43.98;101781.97;5028625;28;20195;-45
2023/07/07 10:34:45;;;;;;;5.43;2.60;;;;;;;24.34;43.69;101775.50;5029973;28;20223;-46
2023/07/07 10:37:19;;;;;;;4.40;2.40;;;;;;;24.91;42.71;101762.63;5029979;28;20188;-45
2023/07/07 10:39:50;;;;;;;7.53;2.15;;;;;;;25.25;42.47;101768.84;5024371;28;20277;-45
2023/07/07 10:42:17;;;;;;;2.97;1.98;;;;;;;25.39;42.72;101771.28;5027284;28;20654;-49
2023/07/07 10:44:42;;;;;;;4.15;2.40;;;;;;;25.67;42.26;101771.63;5025812;28;20207;-48
2023/07/07 10:47:08;;;;;;;4.32;2.20;;;;;;;26.25;41.79;101766.47;5026891;28;20214;-47
2023/07/07 10:49:34;;;;;;;3.30;2.00;;;;;;;26.14;40.16;101746.50;5028443;28;20179;-45
2023/07/07 10:52:00;;;;;;;4.57;2.15;;;;;;;26.26;41.57;101762.75;5029675;28;20329;-46
2023/07/07 10:54:57;;;;;;;5.32;2.28;;;;;;;25.42;41.66;101751.81;5029294;28;20274;-46
2023/07/07 10:57:44;;;;;;;6.85;2.30;;;;;;;25.47;42.47;101765.13;5028549;28;20246;-49
2023/07/07 11:00:21;;;;;;;3.17;2.00;;;;;;;25.72;42.77;101774.84;5026558;28;20530;-47
2023/07/07 11:02:53;;;;;;;5.28;2.40;;;;;;;25.62;41.95;101769.28;5028686;28;20564;-51
2023/07/07 11:05:29;;;;;;;4.45;2.47;;;;;;;25.98;40.91;101747.88;5027050;28;20207;-45
2023/07/07 11:08:01;;;;;;;3.35;2.28;;;;;;;26.33;41.28;101760.31;5025602;28;20251;-44
2023/07/07 11:10:35;;;;;;;3.17;2.28;;;;;;;25.70;40.94;101749.41;5029674;28;20175;-48
2023/07/07 11:13:33;;;;;;;5.57;2.03;;;;;;;24.68;43.07;101777.22;5029514;28;20528;-46
2023/07/07 11:16:36;;;;;;;3.67;2.15;;;;;;;24.90;42.75;101769.94;5025852;28;20542;-48
2023/07/07 11:19:45;;;;;;;2.97;1.88;;;;;;;24.65;43.68;101784.84;5026000;28;20183;-47
2023/07/07 11:22:29;;;;;;;5.00;2.40;;;;;;;24.90;43.84;101788.25;5026449;28;20264;-48
2023/07/07 11:25:02;;;;;;;3.75;2.50;;;;;;;25.15;42.66;101776.13;5029284;28;20238;-47
2023/07/07 11:27:50;;;;;;;4.55;2.15;;;;;;;25.05;42.92;101793.31;5021113;28;20186;-47
2023/07/07 11:30:41;;;;;;;3.65;2.25;;;;;;;25.21;43.76;101792.94;5027937;28;20559;-49
2023/07/07 11:33:16;;;;;;;4.07;2.28;;;;;;;24.82;44.11;101783.44;5024547;28;20665;-51
2023/07/07 11:35:53;;;;;;;5.25;2.53;;;;;;;25.40;43.10;101791.34;5029520;28;20202;-50
2023/07/07 11:38:37;;;;;;;4.03;2.40;;;;;;;25.14;43.40;101790.81;5018076;28;20188;-47